Time;durP1;ratioP1;P1;durP2;ratioP2;P2;SDS_P1;SDS_P2;PMS_P1;PMS_P2;Temp;Humidity;BMP_temperature;BMP_pressure;BME280_temperature;BME280_humidity;BME280_pressure;Samples;Min_cycle;Max_cycle;Signal;HPM_P1;HPM_P2
2023/12/03 00:00:23;;;;;;;9.60;5.80;;;;;;;-1.70;100.00;99199.25;5105142;28;20184;-79
2023/12/03 00:02:50;;;;;;;7.30;5.80;;;;;;;-1.66;100.00;99204.03;5110596;28;20195;-81
2023/12/03 00:05:18;;;;;;;8.33;6.30;;;;;;;-1.62;100.00;99212.44;5097429;28;20188;-79
2023/12/03 00:07:48;;;;;;;7.43;5.97;;;;;;;-1.67;100.00;99210.28;5100663;28;20207;-79
2023/12/03 00:10:16;;;;;;;7.80;5.60;;;;;;;-1.70;100.00;99205.34;5110864;28;20207;-80
2023/12/03 00:12:46;;;;;;;8.80;6.40;;;;;;;-1.69;100.00;99222.75;5108413;28;20246;-80
2023/12/03 00:15:16;;;;;;;8.53;6.27;;;;;;;-1.71;100.00;99227.31;5115571;28;20319;-80
2023/12/03 00:17:45;;;;;;;7.77;6.30;;;;;;;-1.71;100.00;99219.44;5098586;28;20250;-79
2023/12/03 00:20:12;;;;;;;7.63;5.60;;;;;;;-1.80;100.00;99234.31;5103281;28;20195;-79
2023/12/03 00:22:39;;;;;;;7.87;5.73;;;;;;;-1.60;100.00;99234.16;5111795;27;20192;-79
2023/12/03 00:25:08;;;;;;;7.53;6.20;;;;;;;-1.58;100.00;99234.78;5112591;28;20267;-79
2023/12/03 00:27:37;;;;;;;6.93;6.23;;;;;;;-1.58;100.00;99248.75;5103888;28;20269;-78
2023/12/03 00:30:04;;;;;;;7.87;6.40;;;;;;;-1.63;100.00;99258.91;5108947;28;20192;-79
2023/12/03 00:32:31;;;;;;;8.30;6.07;;;;;;;-1.66;100.00;99255.75;5107740;28;20204;-79
2023/12/03 00:34:58;;;;;;;7.43;6.17;;;;;;;-1.65;100.00;99262.66;5111270;28;20179;-79
2023/12/03 00:37:27;;;;;;;8.77;6.40;;;;;;;-1.75;100.00;99273.25;5105371;28;20191;-80
2023/12/03 00:39:54;;;;;;;8.60;6.53;;;;;;;-1.68;100.00;99274.28;5106904;28;20192;-79
2023/12/03 00:42:28;;;;;;;8.20;6.33;;;;;;;-1.74;100.00;99272.28;5113068;28;20210;-79
2023/12/03 00:44:55;;;;;;;7.33;6.27;;;;;;;-1.74;100.00;99282.78;5114599;28;20218;-78
2023/12/03 00:47:21;;;;;;;7.03;5.87;;;;;;;-1.77;100.00;99295.41;5095670;28;20189;-78
2023/12/03 00:49:51;;;;;;;8.10;6.33;;;;;;;-1.61;100.00;99292.91;5094975;28;20185;-79
2023/12/03 00:52:18;;;;;;;7.63;6.47;;;;;;;-1.72;100.00;99288.69;5095469;28;20268;-79
2023/12/03 00:54:46;;;;;;;7.03;5.97;;;;;;;-1.64;100.00;99298.47;5113671;28;20214;-79
2023/12/03 00:57:13;;;;;;;8.13;6.60;;;;;;;-1.77;100.00;99300.66;5114563;28;20192;-80
2023/12/03 00:59:43;;;;;;;7.33;6.00;;;;;;;-1.80;100.00;99307.00;5114781;28;20187;-78
2023/12/03 01:02:12;;;;;;;7.63;6.27;;;;;;;-1.72;100.00;99311.50;5114620;28;20203;-79
2023/12/03 01:04:39;;;;;;;7.13;6.10;;;;;;;-1.80;100.00;99317.50;5109538;28;20204;-79
2023/12/03 01:07:11;;;;;;;7.07;5.73;;;;;;;-1.78;100.00;99323.44;5101606;27;20199;-79
2023/12/03 01:09:38;;;;;;;6.60;5.70;;;;;;;-1.81;100.00;99324.56;5113046;28;20195;-78
2023/12/03 01:12:10;;;;;;;8.10;6.70;;;;;;;-1.90;100.00;99327.25;5088667;28;20215;-79
2023/12/03 01:14:37;;;;;;;6.73;5.80;;;;;;;-1.96;100.00;99330.47;5114181;28;20194;-78
2023/12/03 01:17:05;;;;;;;6.90;5.90;;;;;;;-1.95;100.00;99321.59;5103707;28;20183;-79
2023/12/03 01:19:35;;;;;;;7.87;5.97;;;;;;;-1.95;100.00;99327.69;5087907;28;20199;-78
2023/12/03 01:22:04;;;;;;;7.10;5.80;;;;;;;-1.98;100.00;99335.03;5113119;28;20245;-79
2023/12/03 01:24:31;;;;;;;6.40;5.73;;;;;;;-1.98;100.00;99343.75;5107185;28;20180;-79
2023/12/03 01:27:00;;;;;;;6.13;5.53;;;;;;;-2.06;100.00;99346.28;5095888;28;20191;-79
2023/12/03 01:29:29;;;;;;;6.53;5.17;;;;;;;-1.91;100.00;99341.34;5103740;28;20254;-79
2023/12/03 01:31:58;;;;;;;6.67;5.07;;;;;;;-2.03;100.00;99359.13;5097973;28;20658;-78
2023/12/03 01:34:28;;;;;;;6.60;5.30;;;;;;;-2.05;100.00;99363.66;5110033;28;20196;-79
2023/12/03 01:36:57;;;;;;;6.90;5.30;;;;;;;-2.19;100.00;99369.41;5110751;28;20195;-81
2023/12/03 01:39:24;;;;;;;5.33;4.63;;;;;;;-2.23;100.00;99379.38;5108809;28;20188;-79
2023/12/03 01:41:53;;;;;;;5.83;5.17;;;;;;;-2.16;100.00;99368.28;5109612;28;20207;-79
2023/12/03 01:44:19;;;;;;;6.90;5.30;;;;;;;-2.14;100.00;99369.78;5099519;28;20191;-79
2023/12/03 01:46:48;;;;;;;5.70;5.10;;;;;;;-2.13;100.00;99392.44;5104715;28;20184;-79
2023/12/03 01:49:18;;;;;;;5.33;4.77;;;;;;;-2.10;100.00;99375.59;5103726;28;20196;-79
2023/12/03 01:51:46;;;;;;;4.83;4.33;;;;;;;-2.09;100.00;99385.94;5099239;28;20242;-78
2023/12/03 01:54:12;;;;;;;5.07;4.57;;;;;;;-2.09;100.00;99385.09;5102570;28;20219;-78
2023/12/03 01:56:39;;;;;;;5.03;4.53;;;;;;;-2.12;100.00;99391.50;5107624;28;20217;-78
2023/12/03 01:59:14;;;;;;;4.87;4.37;;;;;;;-2.12;100.00;99388.88;5104957;28;20256;-78
2023/12/03 02:01:41;;;;;;;6.13;5.03;;;;;;;-2.16;100.00;99392.75;5111606;28;20227;-79
2023/12/03 02:04:11;;;;;;;5.77;4.77;;;;;;;-2.18;100.00;99399.94;5100409;28;20648;-79
2023/12/03 02:06:38;;;;;;;5.10;4.50;;;;;;;-2.19;100.00;99398.28;5108880;28;20184;-79
2023/12/03 02:09:07;;;;;;;5.00;4.50;;;;;;;-2.16;100.00;99402.41;5104587;28;20215;-79
2023/12/03 02:11:34;;;;;;;5.77;4.77;;;;;;;-2.08;100.00;99407.75;5113030;28;20192;-78
2023/12/03 02:14:02;;;;;;;5.03;4.23;;;;;;;-2.05;100.00;99397.00;5106574;28;20188;-78
2023/12/03 02:16:30;;;;;;;4.90;4.37;;;;;;;-2.11;100.00;99411.53;5109572;28;20229;-78
2023/12/03 02:18:57;;;;;;;5.47;4.23;;;;;;;-2.07;100.00;99406.81;5109277;28;20652;-81
2023/12/03 02:21:26;;;;;;;5.33;4.30;;;;;;;-2.12;100.00;99415.13;5107305;28;20557;-79
2023/12/03 02:23:53;;;;;;;5.27;4.47;;;;;;;-2.15;100.00;99412.78;5112948;28;20199;-78
2023/12/03 02:26:22;;;;;;;4.80;4.30;;;;;;;-2.17;100.00;99414.72;5103359;28;20199;-78
2023/12/03 02:28:52;;;;;;;4.93;4.23;;;;;;;-2.15;100.00;99420.66;5103509;28;20196;-78
2023/12/03 02:31:18;;;;;;;5.20;4.47;;;;;;;-2.05;100.00;99428.50;5104422;28;20196;-78
2023/12/03 02:33:52;;;;;;;4.80;4.23;;;;;;;-2.19;100.00;99429.75;5112595;28;20279;-77
2023/12/03 02:36:22;;;;;;;4.30;3.90;;;;;;;-2.09;100.00;99441.06;5103114;28;20244;-78
2023/12/03 02:38:49;;;;;;;4.63;4.13;;;;;;;-2.17;100.00;99445.38;5102073;28;20210;-79
2023/12/03 02:41:16;;;;;;;5.00;3.93;;;;;;;-2.19;100.00;99448.13;5100068;28;20187;-78
2023/12/03 02:43:46;;;;;;;4.13;3.73;;;;;;;-2.24;100.00;99464.31;5112428;28;20216;-78
2023/12/03 02:46:12;;;;;;;4.00;3.60;;;;;;;-2.30;100.00;99456.19;5098731;28;20187;-78
2023/12/03 02:48:39;;;;;;;4.23;3.80;;;;;;;-2.31;100.00;99470.28;5112563;28;20238;-79
2023/12/03 02:51:09;;;;;;;4.17;3.77;;;;;;;-2.39;100.00;99467.53;5101159;28;20228;-78
2023/12/03 02:53:37;;;;;;;4.93;4.07;;;;;;;-2.51;100.00;99463.41;5105500;28;20232;-78
2023/12/03 02:56:04;;;;;;;4.13;3.70;;;;;;;-2.59;100.00;99472.00;5108331;28;20187;-78
2023/12/03 02:58:31;;;;;;;4.70;4.20;;;;;;;-2.60;100.00;99480.81;5105686;28;20301;-78
2023/12/03 03:01:01;;;;;;;4.80;4.10;;;;;;;-2.68;100.00;99464.97;5086736;28;20609;-78
2023/12/03 03:03:29;;;;;;;4.70;4.10;;;;;;;-2.73;100.00;99461.94;5103992;28;20188;-80
2023/12/03 03:05:58;;;;;;;4.87;3.93;;;;;;;-2.63;100.00;99470.63;5111208;28;20195;-79
2023/12/03 03:08:25;;;;;;;3.70;3.40;;;;;;;-2.76;100.00;99464.84;5112033;28;20236;-78
2023/12/03 03:10:56;;;;;;;4.20;3.57;;;;;;;-2.96;100.00;99469.25;5094823;28;20241;-79
2023/12/03 03:13:23;;;;;;;4.20;3.80;;;;;;;-2.97;100.00;99472.84;5111296;28;20227;-79
2023/12/03 03:15:49;;;;;;;3.83;3.37;;;;;;;-3.05;100.00;99471.88;5110578;28;20728;-78
2023/12/03 03:18:17;;;;;;;4.20;3.60;;;;;;;-3.02;100.00;99487.31;5096519;28;20218;-79
2023/12/03 03:20:44;;;;;;;4.87;3.70;;;;;;;-3.16;100.00;99493.78;5090516;28;20224;-79
2023/12/03 03:23:13;;;;;;;4.03;3.53;;;;;;;-3.17;100.00;99505.22;5103794;28;20274;-78
2023/12/03 03:25:40;;;;;;;3.67;3.37;;;;;;;-3.24;100.00;99502.31;5105115;28;20201;-79
2023/12/03 03:28:07;;;;;;;4.30;3.73;;;;;;;-3.31;100.00;99510.88;5111870;28;20217;-79
2023/12/03 03:30:34;;;;;;;3.90;3.50;;;;;;;-3.26;100.00;99516.50;5110537;28;20689;-79
2023/12/03 03:33:03;;;;;;;4.60;3.80;;;;;;;-3.42;100.00;99514.44;5111725;28;20218;-78
2023/12/03 03:35:30;;;;;;;3.93;3.50;;;;;;;-3.38;100.00;99513.19;5103742;28;20188;-79
2023/12/03 03:37:57;;;;;;;4.00;3.47;;;;;;;-3.41;100.00;99517.88;5098401;28;20237;-79
2023/12/03 03:40:27;;;;;;;3.77;3.37;;;;;;;-3.43;100.00;99519.78;5106562;28;20295;-79
2023/12/03 03:42:55;;;;;;;3.90;3.60;;;;;;;-3.46;100.00;99522.69;5102309;28;20198;-79
2023/12/03 03:45:26;;;;;;;3.80;3.40;;;;;;;-3.55;100.00;99522.50;5115836;28;20256;-79
2023/12/03 03:47:53;;;;;;;4.10;3.40;;;;;;;-3.57;100.00;99528.84;5110505;28;20649;-78
2023/12/03 03:50:20;;;;;;;3.87;3.47;;;;;;;-3.67;100.00;99525.34;5103931;28;20192;-79
2023/12/03 03:52:50;;;;;;;3.90;3.50;;;;;;;-3.65;100.00;99523.44;5097648;28;20254;-79
2023/12/03 03:55:18;;;;;;;3.80;3.40;;;;;;;-3.54;100.00;99536.41;5099188;28;20196;-79
2023/12/03 03:57:44;;;;;;;4.03;3.47;;;;;;;-3.56;100.00;99538.38;5112502;28;20222;-79
2023/12/03 04:00:11;;;;;;;4.23;3.53;;;;;;;-3.59;100.00;99554.31;5107608;28;20198;-80
2023/12/03 04:02:46;;;;;;;3.77;3.37;;;;;;;-3.46;100.00;99551.50;5110546;28;20211;-81
2023/12/03 04:05:16;;;;;;;3.93;3.53;;;;;;;-3.56;100.00;99560.16;5107903;28;20206;-79
2023/12/03 04:07:44;;;;;;;3.93;3.27;;;;;;;-3.56;100.00;99554.06;5106748;28;20203;-79
2023/12/03 04:10:11;;;;;;;4.30;3.40;;;;;;;-3.54;100.00;99562.63;5115763;28;20212;-79
2023/12/03 04:12:38;;;;;;;3.67;3.37;;;;;;;-3.59;100.00;99564.78;5115057;28;20207;-79
2023/12/03 04:15:05;;;;;;;3.60;3.30;;;;;;;-3.64;100.00;99567.81;5115543;28;20187;-79
2023/12/03 04:17:33;;;;;;;4.83;3.40;;;;;;;-3.60;100.00;99577.09;5108826;28;20250;-79
2023/12/03 04:20:00;;;;;;;4.13;3.30;;;;;;;-3.59;100.00;99583.97;5108416;28;20199;-79
2023/12/03 04:22:27;;;;;;;3.80;3.40;;;;;;;-3.51;100.00;99591.19;5113341;28;20709;-79
2023/12/03 04:24:54;;;;;;;4.87;3.83;;;;;;;-3.52;100.00;99596.53;5103769;28;20184;-79
2023/12/03 04:27:20;;;;;;;3.53;3.17;;;;;;;-3.45;100.00;99592.44;5114417;28;20184;-81
2023/12/03 04:29:47;;;;;;;4.20;3.40;;;;;;;-3.42;100.00;99594.78;5114822;27;20211;-80
2023/12/03 04:32:15;;;;;;;4.33;3.50;;;;;;;-3.46;100.00;99604.72;5106168;28;20195;-79
2023/12/03 04:34:42;;;;;;;3.83;3.37;;;;;;;-3.46;100.00;99609.13;5103316;28;20667;-79
2023/12/03 04:37:09;;;;;;;3.97;3.40;;;;;;;-3.51;100.00;99611.31;5110058;28;20238;-79
2023/12/03 04:39:37;;;;;;;5.30;3.27;;;;;;;-3.60;100.00;99618.16;5107538;28;20290;-80
2023/12/03 04:42:07;;;;;;;4.00;3.27;;;;;;;-3.59;100.00;99619.78;5114224;28;20183;-80
2023/12/03 04:44:36;;;;;;;4.10;3.27;;;;;;;-3.50;100.00;99623.44;5110481;28;20195;-79
2023/12/03 04:47:03;;;;;;;3.80;3.30;;;;;;;-3.70;100.00;99625.13;5108596;28;20187;-79
2023/12/03 04:49:30;;;;;;;4.93;3.47;;;;;;;-3.79;100.00;99625.91;5105041;28;20188;-80
2023/12/03 04:51:59;;;;;;;3.43;2.93;;;;;;;-3.70;100.00;99632.97;5100037;28;20232;-79
2023/12/03 04:54:30;;;;;;;3.57;3.27;;;;;;;-3.62;100.00;99641.84;5103913;28;20714;-83
2023/12/03 04:57:00;;;;;;;3.33;3.00;;;;;;;-3.67;100.00;99643.19;5110240;28;20222;-80
2023/12/03 04:59:39;;;;;;;3.40;3.10;;;;;;;-3.78;100.00;99649.31;5110846;28;20698;-79
2023/12/03 05:02:06;;;;;;;3.43;3.03;;;;;;;-3.77;100.00;99642.28;5102697;28;20207;-79
2023/12/03 05:04:34;;;;;;;3.23;2.93;;;;;;;-3.74;100.00;99644.69;5110641;27;20188;-79
2023/12/03 05:07:00;;;;;;;3.23;2.87;;;;;;;-3.76;100.00;99654.44;5092182;28;20195;-80
2023/12/03 05:09:30;;;;;;;3.30;3.00;;;;;;;-3.73;100.00;99660.22;5102951;28;20200;-83
2023/12/03 05:11:59;;;;;;;3.73;3.30;;;;;;;-3.83;100.00;99656.75;5101367;28;20715;-80
2023/12/03 05:14:32;;;;;;;3.73;3.30;;;;;;;-3.83;100.00;99666.38;5108258;28;20772;-80
2023/12/03 05:16:59;;;;;;;3.20;2.90;;;;;;;-3.89;100.00;99659.88;5102582;28;20193;-83
2023/12/03 05:19:26;;;;;;;4.27;3.70;;;;;;;-3.95;100.00;99662.16;5113190;28;20206;-79
2023/12/03 05:21:54;;;;;;;3.70;3.30;;;;;;;-3.99;100.00;99666.81;5112266;28;20200;-80
2023/12/03 05:24:21;;;;;;;3.47;3.17;;;;;;;-4.01;100.00;99685.25;5110641;28;20188;-83
2023/12/03 05:26:55;;;;;;;3.30;3.00;;;;;;;-3.99;100.00;99687.75;5100772;28;20216;-80
2023/12/03 05:29:25;;;;;;;3.30;3.00;;;;;;;-4.11;100.00;99689.59;5102937;28;20199;-80
2023/12/03 05:31:53;;;;;;;3.93;3.20;;;;;;;-4.17;100.00;99699.72;5111587;28;20265;-80
2023/12/03 05:34:25;;;;;;;3.60;3.10;;;;;;;-4.20;100.00;99707.84;5108525;28;20219;-80
2023/12/03 05:36:52;;;;;;;3.73;3.33;;;;;;;-4.18;100.00;99711.97;5108967;28;20183;-79
2023/12/03 05:39:21;;;;;;;3.20;2.90;;;;;;;-4.21;100.00;99707.00;5113816;28;20271;-80
2023/12/03 05:41:49;;;;;;;3.90;3.33;;;;;;;-4.13;100.00;99701.13;5113472;28;20191;-80
2023/12/03 05:44:17;;;;;;;3.43;3.13;;;;;;;-4.18;100.00;99706.75;5098768;28;20207;-80
2023/12/03 05:46:44;;;;;;;3.83;3.27;;;;;;;-4.06;100.00;99720.63;5103102;28;20199;-81
2023/12/03 05:49:12;;;;;;;3.67;3.27;;;;;;;-4.07;100.00;99717.19;5075232;28;20282;-79
2023/12/03 05:51:45;;;;;;;4.40;3.17;;;;;;;-3.90;100.00;99730.66;5100612;28;20739;-80
2023/12/03 05:54:20;;;;;;;4.20;3.50;;;;;;;-3.91;100.00;99729.81;5098565;28;20268;-84
2023/12/03 05:56:47;;;;;;;3.67;3.03;;;;;;;-3.91;100.00;99729.81;5093857;28;20196;-79
2023/12/03 05:59:18;;;;;;;3.90;3.17;;;;;;;-3.77;100.00;99734.75;5109556;28;20718;-80
2023/12/03 06:01:47;;;;;;;3.20;2.90;;;;;;;-3.74;100.00;99737.16;5102435;28;20634;-80
2023/12/03 06:04:14;;;;;;;4.00;3.13;;;;;;;-3.59;100.00;99748.94;5105616;28;20192;-80
2023/12/03 06:06:41;;;;;;;3.77;3.20;;;;;;;-3.49;100.00;99750.81;5105634;28;20246;-79
2023/12/03 06:09:12;;;;;;;3.70;3.20;;;;;;;-3.56;100.00;99755.75;5107650;28;20310;-79
2023/12/03 06:11:52;;;;;;;3.33;2.90;;;;;;;-3.45;100.00;99741.75;5090901;28;20211;-80
2023/12/03 06:14:19;;;;;;;3.23;2.83;;;;;;;-3.51;100.00;99753.56;5092917;28;20293;-80
2023/12/03 06:16:45;;;;;;;4.03;3.27;;;;;;;-3.47;100.00;99751.53;5076215;28;20207;-82
2023/12/03 06:19:14;;;;;;;3.30;3.00;;;;;;;-3.47;100.00;99762.00;5100513;28;20187;-80
2023/12/03 06:21:41;;;;;;;3.33;2.80;;;;;;;-3.43;100.00;99756.38;5100844;28;20219;-79
2023/12/03 06:24:08;;;;;;;4.23;3.20;;;;;;;-3.41;100.00;99753.63;5090635;28;20195;-80
2023/12/03 06:26:37;;;;;;;3.43;3.13;;;;;;;-3.37;100.00;99761.13;5104157;28;20229;-82
2023/12/03 06:29:04;;;;;;;3.53;3.23;;;;;;;-3.31;100.00;99768.44;5103208;28;20543;-81
2023/12/03 06:31:33;;;;;;;3.50;3.20;;;;;;;-3.26;100.00;99761.03;5102439;28;20192;-82
2023/12/03 06:34:00;;;;;;;3.30;3.00;;;;;;;-3.16;100.00;99763.72;5101868;28;20223;-80
2023/12/03 06:36:27;;;;;;;3.77;3.37;;;;;;;-3.17;100.00;99772.53;5082135;28;20215;-79
2023/12/03 06:38:54;;;;;;;3.83;3.20;;;;;;;-3.19;100.00;99783.16;5102342;28;20192;-80
2023/12/03 06:41:21;;;;;;;3.43;3.10;;;;;;;-3.10;100.00;99794.66;5110057;28;20199;-79
2023/12/03 06:43:47;;;;;;;3.60;3.30;;;;;;;-3.06;100.00;99782.09;5108946;28;20257;-80
2023/12/03 06:46:14;;;;;;;3.70;3.17;;;;;;;-3.04;100.00;99796.75;5101858;28;20191;-82
2023/12/03 06:48:42;;;;;;;4.23;3.30;;;;;;;-3.00;100.00;99808.66;5070233;28;20195;-80
2023/12/03 06:51:10;;;;;;;3.57;3.23;;;;;;;-2.96;100.00;99810.03;5097825;28;20232;-81
2023/12/03 06:53:40;;;;;;;3.73;3.10;;;;;;;-2.95;100.00;99821.38;5099824;28;20268;-80
2023/12/03 06:56:10;;;;;;;3.10;2.80;;;;;;;-2.95;100.00;99816.13;5099927;28;20215;-80
2023/12/03 06:58:38;;;;;;;4.07;3.40;;;;;;;-3.01;100.00;99825.31;5101139;28;20711;-80
2023/12/03 07:01:09;;;;;;;3.30;3.00;;;;;;;-2.97;100.00;99823.28;5074341;28;20195;-80
2023/12/03 07:03:36;;;;;;;4.30;3.37;;;;;;;-2.97;100.00;99828.50;5107667;28;20200;-79
2023/12/03 07:06:04;;;;;;;3.73;3.33;;;;;;;-3.01;100.00;99825.31;5100532;28;20200;-81
2023/12/03 07:08:33;;;;;;;4.30;3.90;;;;;;;-2.98;100.00;99826.84;5107827;28;20242;-80
2023/12/03 07:11:01;;;;;;;4.57;3.83;;;;;;;-3.01;100.00;99821.88;5096644;28;20241;-80
2023/12/03 07:13:28;;;;;;;3.73;3.43;;;;;;;-3.08;100.00;99826.81;5108882;28;20239;-80
2023/12/03 07:15:55;;;;;;;4.00;3.60;;;;;;;-3.08;100.00;99825.97;5110492;28;20204;-80
2023/12/03 07:18:23;;;;;;;5.03;3.83;;;;;;;-3.13;100.00;99831.59;5104518;28;20236;-80
2023/12/03 07:20:51;;;;;;;4.10;3.70;;;;;;;-3.05;100.00;99837.03;5095751;28;20197;-80
2023/12/03 07:23:18;;;;;;;4.00;3.53;;;;;;;-3.11;100.00;99848.03;5110666;28;20277;-80
2023/12/03 07:25:45;;;;;;;4.63;4.03;;;;;;;-3.06;100.00;99842.41;5110787;28;20190;-80
2023/12/03 07:28:15;;;;;;;4.70;3.87;;;;;;;-3.12;100.00;99852.44;5110029;28;20191;-80
2023/12/03 07:30:42;;;;;;;4.97;4.33;;;;;;;-3.02;100.00;99857.75;5111106;28;20252;-80
2023/12/03 07:33:13;;;;;;;4.93;4.23;;;;;;;-3.02;100.00;99855.13;5094476;28;20208;-79
2023/12/03 07:35:41;;;;;;;4.27;3.87;;;;;;;-3.08;100.00;99850.41;5102568;28;20188;-80
2023/12/03 07:38:08;;;;;;;4.67;4.20;;;;;;;-2.89;100.00;99857.56;5112066;28;20222;-80
2023/12/03 07:40:43;;;;;;;5.17;4.53;;;;;;;-2.92;100.00;99869.13;5102714;28;20278;-81
2023/12/03 07:43:11;;;;;;;5.07;4.57;;;;;;;-2.90;100.00;99874.25;5087160;28;20191;-80
2023/12/03 07:45:43;;;;;;;4.90;4.40;;;;;;;-2.75;100.00;99883.44;5095998;28;20191;-79
2023/12/03 07:48:10;;;;;;;5.70;5.07;;;;;;;-2.63;100.00;99889.44;5095456;28;20694;-80
2023/12/03 07:50:39;;;;;;;6.23;5.03;;;;;;;-2.60;100.00;99897.06;5111014;28;20198;-80
2023/12/03 07:53:08;;;;;;;5.40;4.70;;;;;;;-2.58;100.00;99900.38;5094753;28;20237;-80
2023/12/03 07:55:37;;;;;;;5.63;4.90;;;;;;;-2.52;100.00;99908.56;5101178;28;20206;-80
2023/12/03 07:58:05;;;;;;;5.37;4.80;;;;;;;-2.39;100.00;99908.38;5093881;28;20890;-80
2023/12/03 08:00:37;;;;;;;5.83;4.80;;;;;;;-2.43;100.00;99914.84;5112234;28;20210;-80
2023/12/03 08:03:04;;;;;;;5.37;4.67;;;;;;;-2.37;100.00;99916.94;5092249;28;20355;-81
2023/12/03 08:05:31;;;;;;;5.50;5.00;;;;;;;-2.23;100.00;99919.19;5105493;28;20203;-80
2023/12/03 08:07:59;;;;;;;6.00;5.20;;;;;;;-2.14;100.00;99928.91;5098751;28;20243;-82
2023/12/03 08:10:27;;;;;;;5.60;4.87;;;;;;;-2.00;100.00;99927.72;5108598;28;20227;-80
2023/12/03 08:12:57;;;;;;;5.20;4.70;;;;;;;-1.88;100.00;99927.50;5109951;28;20265;-81
2023/12/03 08:15:24;;;;;;;6.13;5.00;;;;;;;-1.84;100.00;99925.44;5103510;28;20218;-80
2023/12/03 08:17:54;;;;;;;5.87;5.27;;;;;;;-1.71;100.00;99931.28;5099998;28;20195;-83
2023/12/03 08:20:21;;;;;;;5.97;5.00;;;;;;;-1.70;100.00;99929.50;5092404;28;20188;-82
2023/12/03 08:22:50;;;;;;;6.63;5.27;;;;;;;-1.70;100.00;99927.69;5101937;28;20192;-80
2023/12/03 08:25:20;;;;;;;6.07;5.33;;;;;;;-1.74;100.00;99936.81;5099519;28;20226;-80
2023/12/03 08:27:47;;;;;;;5.97;5.30;;;;;;;-1.69;100.00;99944.28;5112592;28;20191;-81
2023/12/03 08:30:15;;;;;;;5.90;5.30;;;;;;;-1.67;100.00;99934.47;5100538;28;20256;-79
2023/12/03 08:32:45;;;;;;;5.37;4.87;;;;;;;-1.69;100.00;99953.00;5115290;27;20241;-80
2023/12/03 08:35:15;;;;;;;5.67;5.10;;;;;;;-1.75;100.00;99944.81;5113651;28;20676;-79
2023/12/03 08:37:43;;;;;;;5.80;4.87;;;;;;;-1.75;100.00;99958.78;5103627;28;20187;-82
2023/12/03 08:40:10;;;;;;;5.87;5.07;;;;;;;-1.84;100.00;99951.72;5108863;28;20199;-80
2023/12/03 08:42:41;;;;;;;4.93;4.43;;;;;;;-1.85;100.00;99956.13;5107402;28;20196;-80
2023/12/03 08:45:09;;;;;;;6.23;5.27;;;;;;;-1.85;100.00;99950.88;5113281;28;20266;-80
2023/12/03 08:47:37;;;;;;;6.63;4.90;;;;;;;-1.92;100.00;99955.00;5115088;28;20655;-80
2023/12/03 08:50:04;;;;;;;5.30;4.80;;;;;;;-1.97;100.00;99961.63;5105391;28;20198;-79
2023/12/03 08:52:31;;;;;;;5.30;4.80;;;;;;;-1.99;100.00;99974.03;5108873;28;20234;-80
2023/12/03 08:55:02;;;;;;;5.40;4.70;;;;;;;-1.96;100.00;99961.47;5112557;27;20302;-80
2023/12/03 08:57:29;;;;;;;5.27;4.50;;;;;;;-1.99;100.00;99963.53;5096738;28;20195;-79
2023/12/03 08:59:57;;;;;;;4.60;4.07;;;;;;;-1.93;100.00;99966.47;5100187;28;20197;-83
2023/12/03 09:02:24;;;;;;;5.37;4.47;;;;;;;-2.00;100.00;99961.84;5096555;28;20198;-80
2023/12/03 09:04:52;;;;;;;4.87;4.37;;;;;;;-1.85;100.00;99965.81;5090851;27;20192;-83
2023/12/03 09:07:24;;;;;;;4.47;4.03;;;;;;;-1.88;100.00;99968.69;5074165;28;20289;-81
2023/12/03 09:09:52;;;;;;;4.87;4.37;;;;;;;-1.73;100.00;99964.75;5084623;28;20258;-80
2023/12/03 09:12:20;;;;;;;4.83;4.30;;;;;;;-1.72;100.00;99970.81;5090772;28;20223;-80
2023/12/03 09:14:47;;;;;;;4.30;3.90;;;;;;;-1.72;100.00;99973.44;5090628;28;20291;-80
2023/12/03 09:17:22;;;;;;;4.07;3.60;;;;;;;-1.75;100.00;99974.56;5101457;28;20212;-80
2023/12/03 09:19:49;;;;;;;4.10;3.70;;;;;;;-1.78;100.00;99982.72;5098958;28;20261;-81
2023/12/03 09:22:18;;;;;;;4.47;3.87;;;;;;;-1.77;100.00;99995.69;5101308;28;20279;-80
2023/12/03 09:24:49;;;;;;;4.70;4.23;;;;;;;-1.70;100.00;99982.03;5094178;28;20192;-79
2023/12/03 09:27:16;;;;;;;3.97;3.53;;;;;;;-1.74;100.00;99989.34;5098928;28;20222;-80
2023/12/03 09:29:43;;;;;;;4.30;3.90;;;;;;;-1.75;100.00;99985.06;5093873;28;20219;-82
2023/12/03 09:32:09;;;;;;;4.47;3.90;;;;;;;-1.74;100.00;99988.53;5087509;28;20667;-80
2023/12/03 09:34:36;;;;;;;4.10;3.70;;;;;;;-1.63;100.00;99991.88;5106970;28;20215;-80
2023/12/03 09:37:03;;;;;;;4.17;3.77;;;;;;;-1.60;100.00;99994.25;5107267;28;20192;-80
2023/12/03 09:39:33;;;;;;;4.97;4.47;;;;;;;-1.54;100.00;99998.94;5107072;28;20275;-80
2023/12/03 09:42:07;;;;;;;4.37;3.80;;;;;;;-1.51;100.00;100001.31;5103668;28;20213;-79
2023/12/03 09:44:59;;;;;;;4.83;4.17;;;;;;;-1.51;100.00;99989.97;5103446;28;20206;-80
2023/12/03 09:47:32;;;;;;;4.33;3.70;;;;;;;-1.47;100.00;99992.22;5101535;28;20222;-82
2023/12/03 09:50:00;;;;;;;4.43;4.03;;;;;;;-1.37;100.00;99979.09;5103915;28;20200;-81
2023/12/03 09:52:35;;;;;;;4.37;3.97;;;;;;;-1.45;100.00;99990.28;5108034;28;20318;-80
2023/12/03 09:55:05;;;;;;;4.23;3.83;;;;;;;-1.34;100.00;99990.16;5086018;28;20749;-80
2023/12/03 09:57:35;;;;;;;4.10;3.70;;;;;;;-1.36;100.00;99984.22;5109935;28;20268;-80
2023/12/03 10:00:07;;;;;;;4.30;3.90;;;;;;;-1.27;100.00;99985.19;5109142;28;20198;-80
2023/12/03 10:02:36;;;;;;;4.50;3.83;;;;;;;-1.14;100.00;99984.94;5094301;28;20674;-81
2023/12/03 10:05:06;;;;;;;4.37;3.97;;;;;;;-1.03;100.00;99990.09;5093653;28;20199;-81
2023/12/03 10:07:36;;;;;;;4.13;3.70;;;;;;;-0.84;100.00;99982.19;5095605;28;20227;-81
2023/12/03 10:10:04;;;;;;;4.23;3.83;;;;;;;-0.69;100.00;99986.06;5081139;28;20196;-80
2023/12/03 10:12:41;;;;;;;4.17;3.77;;;;;;;-0.57;100.00;99992.03;5113702;28;20214;-80
2023/12/03 10:15:10;;;;;;;3.53;3.17;;;;;;;-0.64;100.00;99993.53;5112193;28;20222;-80
2023/12/03 10:17:39;;;;;;;3.83;3.50;;;;;;;-0.65;100.00;99992.69;5113212;28;20218;-80
2023/12/03 10:20:20;;;;;;;4.53;3.60;;;;;;;-0.49;100.00;99984.25;5109824;28;20237;-82
2023/12/03 10:22:49;;;;;;;3.73;3.27;;;;;;;-0.27;100.00;99988.34;5093448;28;20264;-80
2023/12/03 10:25:32;;;;;;;4.63;3.57;;;;;;;-0.26;100.00;99998.75;5095049;28;20187;-80
2023/12/03 10:28:04;;;;;;;3.67;3.37;;;;;;;-0.35;100.00;99999.63;5102834;28;20207;-83
2023/12/03 10:30:32;;;;;;;3.90;3.43;;;;;;;-0.32;100.00;99995.84;5078961;28;20199;-80
2023/12/03 10:33:16;;;;;;;4.63;3.60;;;;;;;-0.36;100.00;100005.84;5105366;28;20187;-81
2023/12/03 10:35:46;;;;;;;3.90;3.23;;;;;;;-0.23;100.00;100000.25;5087119;28;20232;-82
2023/12/03 10:38:16;;;;;;;3.73;3.43;;;;;;;-0.04;100.00;100008.97;5111629;28;20207;-83
2023/12/03 10:40:47;;;;;;;4.80;3.47;;;;;;;-0.05;100.00;100001.22;5111600;28;20184;-80
2023/12/03 10:43:14;;;;;;;4.57;4.10;;;;;;;0.03;100.00;100001.31;5108737;28;20228;-80
2023/12/03 10:45:42;;;;;;;4.43;4.03;;;;;;;0.11;100.00;100006.69;5091911;28;20219;-80
2023/12/03 10:48:10;;;;;;;4.23;3.80;;;;;;;0.15;100.00;100008.06;5106763;28;20199;-83
2023/12/03 10:50:43;;;;;;;4.17;3.77;;;;;;;0.30;100.00;100011.06;5093395;28;20299;-80
2023/12/03 10:53:12;;;;;;;4.33;3.80;;;;;;;0.04;100.00;100017.97;5076338;28;20201;-80
2023/12/03 10:55:40;;;;;;;4.73;4.20;;;;;;;-0.23;100.00;100013.44;5088651;28;20215;-81
2023/12/03 10:58:09;;;;;;;4.57;4.17;;;;;;;-0.39;100.00;100011.41;5078050;28;20222;-84
2023/12/03 11:00:40;;;;;;;4.60;4.13;;;;;;;-0.34;100.00;100008.34;5094665;28;20191;-81
2023/12/03 11:03:20;;;;;;;5.13;4.50;;;;;;;-0.37;100.00;100008.63;5092809;28;20260;-81
2023/12/03 11:05:52;;;;;;;4.60;4.20;;;;;;;-0.37;100.00;100011.28;5091186;28;20185;-80
2023/12/03 11:08:22;;;;;;;4.67;4.27;;;;;;;-0.31;100.00;100003.63;5103733;28;20234;-81
2023/12/03 11:10:52;;;;;;;4.37;3.97;;;;;;;-0.25;100.00;100010.13;5102976;28;20203;-81
2023/12/03 11:13:22;;;;;;;4.33;3.90;;;;;;;-0.34;100.00;99998.66;5100713;28;20208;-83
2023/12/03 11:16:06;;;;;;;4.90;4.50;;;;;;;-0.39;100.00;100000.88;5093546;28;20718;-81
2023/12/03 11:18:38;;;;;;;6.13;4.40;;;;;;;-0.27;100.00;99994.47;5095918;28;20199;-81
2023/12/03 11:21:15;;;;;;;4.20;3.77;;;;;;;-0.33;100.00;99994.22;5097913;28;20210;-82
2023/12/03 11:24:11;;;;;;;4.80;4.30;;;;;;;-0.31;100.00;99997.53;5088764;28;20199;-82
2023/12/03 11:26:42;;;;;;;4.20;3.80;;;;;;;-0.43;100.00;99996.03;5089859;28;20612;-82
2023/12/03 11:29:12;;;;;;;4.43;4.03;;;;;;;-0.55;100.00;99998.78;5102736;28;20206;-83
2023/12/03 11:31:39;;;;;;;4.77;4.30;;;;;;;-0.66;100.00;99993.69;5110605;28;20234;-81